createdAt,value
2023-01-25T00:00:03.794Z,100425.75
2023-01-25T00:02:30.585Z,100424.72
2023-01-25T00:04:57.408Z,100418.13
2023-01-25T00:07:24.144Z,100410.31
2023-01-25T00:09:50.885Z,100411.94
2023-01-25T00:12:17.660Z,100408.25
2023-01-25T00:14:45.427Z,100406.59
2023-01-25T00:17:12.309Z,100406.59
2023-01-25T00:19:39.086Z,100404.53
2023-01-25T00:22:05.984Z,100408.63
2023-01-25T00:24:32.763Z,100402.25
2023-01-25T00:26:59.807Z,100400.81
2023-01-25T00:29:26.726Z,100403.91
2023-01-25T00:32:31.160Z,100404.09
2023-01-25T00:35:35.585Z,100401.22
2023-01-25T00:38:40.156Z,100393.59
2023-01-25T00:41:09.116Z,100393.19
2023-01-25T00:43:35.831Z,100389.06
2023-01-25T00:46:02.804Z,100376.28
2023-01-25T00:48:30.427Z,100383.50
2023-01-25T00:51:01.609Z,100380.00
2023-01-25T00:54:24.709Z,100372.78
2023-01-25T00:57:19.571Z,100380.59
2023-01-25T00:59:47.488Z,100378.16
2023-01-25T01:02:14.217Z,100377.94
2023-01-25T01:04:41.019Z,100373.41
2023-01-25T01:07:46.227Z,100373.00
2023-01-25T01:10:50.499Z,100378.97
2023-01-25T01:13:55.022Z,100377.31
2023-01-25T01:16:21.791Z,100384.94
2023-01-25T01:18:48.783Z,100381.44
2023-01-25T01:21:15.543Z,100378.97
2023-01-25T01:23:42.760Z,100375.66
2023-01-25T01:26:12.555Z,100377.72
2023-01-25T01:28:39.612Z,100369.69
2023-01-25T01:31:19.865Z,100367.63
2023-01-25T01:33:54.964Z,100366.19
2023-01-25T01:36:26.988Z,100363.50
2023-01-25T01:38:53.798Z,100360.22
2023-01-25T01:41:21.594Z,100369.50
2023-01-25T01:43:48.408Z,100370.53
2023-01-25T01:46:33.517Z,100371.13
2023-01-25T01:49:10.415Z,100374.25
2023-01-25T01:51:48.129Z,100373.59
2023-01-25T01:54:21.619Z,100372.78
2023-01-25T01:56:48.435Z,100378.56
2023-01-25T01:59:16.374Z,100376.09
2023-01-25T02:01:44.486Z,100378.16
2023-01-25T02:04:13.052Z,100364.75
2023-01-25T02:06:47.158Z,100376.31
2023-01-25T02:09:19.475Z,100369.69
2023-01-25T02:11:47.615Z,100372.59
2023-01-25T02:14:17.241Z,100369.50
2023-01-25T02:16:44.556Z,100367.84
2023-01-25T02:19:22.548Z,100363.91
2023-01-25T02:21:52.381Z,100359.41
2023-01-25T02:24:33.109Z,100356.91
2023-01-25T02:27:00.124Z,100356.50
2023-01-25T02:29:29.329Z,100362.09
2023-01-25T02:32:05.301Z,100358.56
2023-01-25T02:34:32.169Z,100359.19
2023-01-25T02:36:59.793Z,100358.16
2023-01-25T02:39:27.998Z,100346.19
2023-01-25T02:41:54.872Z,100349.91
2023-01-25T02:44:26.379Z,100345.38
2023-01-25T02:46:53.616Z,100349.28
2023-01-25T02:49:20.579Z,100344.97
2023-01-25T02:51:50.436Z,100339.81
2023-01-25T02:54:42.687Z,100339.41
2023-01-25T02:57:10.323Z,100338.16
2023-01-25T02:59:37.115Z,100327.88
2023-01-25T03:02:03.902Z,100330.31
2023-01-25T03:04:30.683Z,100326.41
2023-01-25T03:06:57.542Z,100322.09
2023-01-25T03:09:24.567Z,100319.41
2023-01-25T03:11:51.332Z,100319.84
2023-01-25T03:14:18.070Z,100321.91
2023-01-25T03:16:44.833Z,100323.97
2023-01-25T03:19:11.687Z,100318.38
2023-01-25T03:21:40.493Z,100318.41
2023-01-25T03:24:09.336Z,100323.53
2023-01-25T03:26:58.910Z,100315.72
2023-01-25T03:29:25.590Z,100314.88
2023-01-25T03:31:52.386Z,100312.81
2023-01-25T03:34:19.308Z,100314.91
2023-01-25T03:36:46.041Z,100312.41
2023-01-25T03:39:12.933Z,100312.81
2023-01-25T03:41:40.037Z,100312.63
2023-01-25T03:44:06.823Z,100316.75
2023-01-25T03:46:33.508Z,100315.91
2023-01-25T03:49:00.306Z,100312.25
2023-01-25T03:51:27.000Z,100308.53
2023-01-25T03:53:53.794Z,100310.78
2023-01-25T03:56:20.694Z,100311.81
2023-01-25T03:58:47.621Z,100315.09
2023-01-25T04:01:14.572Z,100312.63
2023-01-25T04:03:41.379Z,100316.34
2023-01-25T04:06:08.775Z,100307.28
2023-01-25T04:08:35.864Z,100309.75
2023-01-25T04:11:08.532Z,100312.66
2023-01-25T04:13:36.649Z,100308.53
2023-01-25T04:16:08.243Z,100305.66
2023-01-25T04:18:35.026Z,100303.78
2023-01-25T04:21:01.765Z,100302.75
2023-01-25T04:23:28.518Z,100302.75
2023-01-25T04:26:06.184Z,100297.38
2023-01-25T04:28:34.469Z,100294.09
2023-01-25T04:31:03.357Z,100300.72
2023-01-25T04:33:30.251Z,100294.50
2023-01-25T04:35:57.052Z,100285.44
2023-01-25T04:38:24.224Z,100287.50
2023-01-25T04:40:52.412Z,100293.91
2023-01-25T04:43:22.444Z,100280.50
2023-01-25T04:45:49.229Z,100280.50
2023-01-25T04:48:16.038Z,100281.13
2023-01-25T04:50:43.498Z,100284.63
2023-01-25T04:53:11.621Z,100276.19
2023-01-25T04:55:38.419Z,100283.59
2023-01-25T04:58:05.333Z,100284.41
2023-01-25T05:00:32.779Z,100282.34
2023-01-25T05:02:59.536Z,100281.31
2023-01-25T05:05:26.560Z,100276.38
2023-01-25T05:07:53.310Z,100268.78
2023-01-25T05:10:20.234Z,100271.44
2023-01-25T05:12:47.175Z,100268.78
2023-01-25T05:15:13.847Z,100266.50
2023-01-25T05:17:40.723Z,100276.59
2023-01-25T05:20:08.195Z,100273.50
2023-01-25T05:22:35.003Z,100271.44
2023-01-25T05:25:03.721Z,100272.66
2023-01-25T05:27:30.602Z,100281.75
2023-01-25T05:29:57.953Z,100271.63
2023-01-25T05:32:24.905Z,100269.38
2023-01-25T05:34:52.298Z,100270.00
2023-01-25T05:37:20.940Z,100268.53
2023-01-25T05:39:49.939Z,100265.88
2023-01-25T05:42:18.511Z,100273.28
2023-01-25T05:44:47.609Z,100277.00
2023-01-25T05:47:17.070Z,100292.44
2023-01-25T05:49:44.326Z,100285.25
2023-01-25T05:52:16.017Z,100284.00
2023-01-25T05:54:43.274Z,100286.88
2023-01-25T05:57:10.174Z,100281.31
2023-01-25T05:59:36.871Z,100271.41
2023-01-25T06:02:03.745Z,100269.78
2023-01-25T06:04:30.440Z,100264.63
2023-01-25T06:06:57.379Z,100266.91
2023-01-25T06:09:24.088Z,100265.66
2023-01-25T06:11:50.829Z,100264.03
2023-01-25T06:14:17.510Z,100254.56
2023-01-25T06:16:44.278Z,100250.63
2023-01-25T06:19:13.241Z,100249.19
2023-01-25T06:21:39.929Z,100245.09
2023-01-25T06:24:06.942Z,100247.53
2023-01-25T06:26:33.775Z,100245.88
2023-01-25T06:29:00.483Z,100234.25
2023-01-25T06:31:27.576Z,100233.47
2023-01-25T06:33:54.651Z,100239.09
2023-01-25T06:36:22.251Z,100233.13
2023-01-25T06:38:50.766Z,100236.22
2023-01-25T06:41:18.692Z,100225.94
2023-01-25T06:43:45.593Z,100235.00
2023-01-25T06:46:12.667Z,100228.81
2023-01-25T06:48:40.242Z,100226.97
2023-01-25T06:51:09.139Z,100223.66
2023-01-25T06:53:39.492Z,100230.06
2023-01-25T06:56:10.907Z,100231.88
2023-01-25T06:58:39.473Z,100228.19
2023-01-25T07:01:16.743Z,100230.66
2023-01-25T07:03:43.645Z,100228.41
2023-01-25T07:06:11.630Z,100225.13
2023-01-25T07:08:39.587Z,100224.09
2023-01-25T07:11:09.521Z,100228.41
2023-01-25T07:13:36.318Z,100229.03
2023-01-25T07:16:08.672Z,100225.13
2023-01-25T07:18:38.394Z,100226.34
2023-01-25T07:21:13.103Z,100230.88
2023-01-25T07:23:41.483Z,100230.66
2023-01-25T07:26:17.773Z,100226.75
2023-01-25T07:28:46.268Z,100232.31
2023-01-25T07:31:13.694Z,100228.22
2023-01-25T07:33:40.726Z,100220.38
2023-01-25T07:36:09.635Z,100211.94
2023-01-25T07:38:37.282Z,100220.38
2023-01-25T07:41:04.333Z,100220.78
2023-01-25T07:43:31.258Z,100218.91
2023-01-25T07:46:02.815Z,100215.63
2023-01-25T07:48:29.872Z,100216.25
2023-01-25T07:51:23.126Z,100216.84
2023-01-25T07:53:55.221Z,100227.16
2023-01-25T07:56:24.585Z,100214.75
2023-01-25T07:58:55.847Z,100216.97
2023-01-25T08:01:25.418Z,100220.50
2023-01-25T08:03:53.053Z,100213.28
2023-01-25T08:06:30.630Z,100219.47
2023-01-25T08:08:59.478Z,100218.41
2023-01-25T08:11:28.148Z,100216.78
2023-01-25T08:13:54.954Z,100219.28
2023-01-25T08:16:26.394Z,100221.75
2023-01-25T08:18:55.669Z,100226.50
2023-01-25T08:21:29.818Z,100230.81
2023-01-25T08:24:02.213Z,100225.47
2023-01-25T08:26:29.229Z,100228.53
2023-01-25T08:28:56.787Z,100219.69
2023-01-25T08:31:28.433Z,100230.81
2023-01-25T08:33:55.811Z,100220.72
2023-01-25T08:36:24.226Z,100224.00
2023-01-25T08:39:00.468Z,100211.66
2023-01-25T08:41:29.064Z,100207.56
2023-01-25T08:43:57.082Z,100215.78
2023-01-25T08:46:28.636Z,100213.09
2023-01-25T08:48:57.712Z,100203.00
2023-01-25T08:51:26.186Z,100200.53
2023-01-25T08:53:52.966Z,100202.34
2023-01-25T08:56:20.052Z,100200.09
2023-01-25T08:58:50.106Z,100198.88
2023-01-25T09:01:19.068Z,100196.00
2023-01-25T09:03:48.277Z,100190.22
2023-01-25T09:06:15.868Z,100191.25
2023-01-25T09:08:46.031Z,100191.44
2023-01-25T09:11:15.569Z,100194.72
2023-01-25T09:13:45.334Z,100193.88
2023-01-25T09:16:16.082Z,100196.38
2023-01-25T09:18:45.317Z,100190.81
2023-01-25T09:21:14.656Z,100186.47
2023-01-25T09:23:57.412Z,100184.41
2023-01-25T09:26:32.454Z,100183.38
2023-01-25T09:28:59.566Z,100181.50
2023-01-25T09:31:29.314Z,100181.94
2023-01-25T09:33:57.876Z,100177.59
2023-01-25T09:36:24.581Z,100187.91
2023-01-25T09:38:51.353Z,100173.28
2023-01-25T09:41:49.113Z,100185.84
2023-01-25T09:44:43.403Z,100177.72
2023-01-25T09:47:25.303Z,100183.94
2023-01-25T09:50:23.062Z,100188.28
2023-01-25T09:53:11.658Z,100176.94
2023-01-25T09:55:39.448Z,100181.88
2023-01-25T09:58:14.291Z,100176.09
2023-01-25T10:00:52.462Z,100182.72
2023-01-25T10:04:03.523Z,100169.13
2023-01-25T10:06:40.764Z,100188.50
2023-01-25T10:09:18.790Z,100191.81
2023-01-25T10:11:48.216Z,100177.78
2023-01-25T10:14:17.442Z,100174.50
2023-01-25T10:16:55.541Z,100171.22
2023-01-25T10:19:45.063Z,100172.84
2023-01-25T10:22:17.093Z,100178.84
2023-01-25T10:24:58.513Z,100158.66
2023-01-25T10:27:46.950Z,100158.66
2023-01-25T10:30:26.899Z,100159.44
2023-01-25T10:33:13.895Z,100152.66
2023-01-25T10:35:47.067Z,100148.56
2023-01-25T10:38:23.311Z,100149.59
2023-01-25T10:40:56.060Z,100149.16
2023-01-25T10:43:23.749Z,100149.16
2023-01-25T10:45:51.420Z,100143.41
2023-01-25T10:48:27.919Z,100147.09
2023-01-25T10:50:57.404Z,100140.28
2023-01-25T10:53:36.774Z,100147.88
2023-01-25T10:56:17.046Z,100139.78
2023-01-25T10:58:49.749Z,100138.53
2023-01-25T11:01:25.722Z,100138.97
2023-01-25T11:03:53.558Z,100128.47
2023-01-25T11:06:38.404Z,100124.78
2023-01-25T11:09:31.713Z,100119.88
2023-01-25T11:12:00.768Z,100123.78
2023-01-25T11:14:30.591Z,100117.00
2023-01-25T11:16:58.993Z,100121.34
2023-01-25T11:19:27.954Z,100118.47
2023-01-25T11:21:57.777Z,100113.31
2023-01-25T11:24:30.338Z,100107.75
2023-01-25T11:27:13.836Z,100099.28
2023-01-25T11:29:40.684Z,100098.25
2023-01-25T11:32:22.811Z,100091.03
2023-01-25T11:34:51.348Z,100082.56
2023-01-25T11:37:49.425Z,100076.56
2023-01-25T11:40:29.738Z,100074.91
2023-01-25T11:43:09.261Z,100072.66
2023-01-25T11:46:02.723Z,100068.97
2023-01-25T11:48:43.588Z,100071.47
2023-01-25T11:51:20.568Z,100064.84
2023-01-25T11:54:12.581Z,100060.09
2023-01-25T11:57:00.843Z,100047.53
2023-01-25T11:59:36.664Z,100044.88
2023-01-25T12:02:25.032Z,100041.75
2023-01-25T12:05:21.220Z,100035.19
2023-01-25T12:08:30.485Z,100033.94
2023-01-25T12:11:28.420Z,100022.22
2023-01-25T12:14:25.710Z,100016.44
2023-01-25T12:17:21.691Z,100014.97
2023-01-25T12:20:24.558Z,100002.59
2023-01-25T12:23:00.288Z,99998.69
2023-01-25T12:25:38.480Z,99988.13
2023-01-25T12:28:41.507Z,99984.00
2023-01-25T12:31:19.251Z,99981.00
2023-01-25T12:33:54.744Z,99981.59
2023-01-25T12:36:33.424Z,99973.75
2023-01-25T12:39:09.320Z,99964.31
2023-01-25T12:41:40.148Z,99963.72
2023-01-25T12:44:16.646Z,99957.34
2023-01-25T12:46:59.614Z,99957.97
2023-01-25T12:49:42.779Z,99951.13
2023-01-25T12:52:34.174Z,99945.41
2023-01-25T12:55:03.615Z,99946.81
2023-01-25T12:57:47.402Z,99938.63
2023-01-25T13:00:35.675Z,99933.69
2023-01-25T13:03:29.600Z,99942.78
2023-01-25T13:06:09.670Z,99935.13
2023-01-25T13:08:44.391Z,99931.19
2023-01-25T13:11:48.441Z,99926.25
2023-01-25T13:14:18.294Z,99923.22
2023-01-25T13:17:08.530Z,99917.03
2023-01-25T13:19:36.777Z,99906.75
2023-01-25T13:22:04.914Z,99900.78
2023-01-25T13:24:33.904Z,99909.44
2023-01-25T13:27:05.134Z,99902.00
2023-01-25T13:29:38.570Z,99894.56
2023-01-25T13:32:25.751Z,99896.03
2023-01-25T13:34:52.694Z,99902.59
2023-01-25T13:37:34.057Z,99886.97
2023-01-25T13:40:32.560Z,99885.31
2023-01-25T13:43:18.228Z,99880.41
2023-01-25T13:45:48.880Z,99875.22
2023-01-25T13:48:25.116Z,99868.00
2023-01-25T13:51:00.773Z,99868.78
2023-01-25T13:53:35.221Z,99859.84
2023-01-25T13:56:29.067Z,99861.09
2023-01-25T13:58:55.946Z,99863.63
2023-01-25T14:01:23.742Z,99861.97
2023-01-25T14:03:55.474Z,99863.84
2023-01-25T14:06:28.809Z,99860.56
2023-01-25T14:08:58.144Z,99866.72
2023-01-25T14:11:34.636Z,99866.13
2023-01-25T14:14:20.335Z,99865.78
2023-01-25T14:17:09.722Z,99869.53
2023-01-25T14:19:41.008Z,99855.78
2023-01-25T14:22:21.663Z,99860.69
2023-01-25T14:25:11.381Z,99866.66
2023-01-25T14:27:43.148Z,99861.94
2023-01-25T14:30:18.421Z,99860.53
2023-01-25T14:32:45.318Z,99850.84
2023-01-25T14:35:54.651Z,99851.22
2023-01-25T14:38:36.377Z,99854.50
2023-01-25T14:41:32.423Z,99850.94
2023-01-25T14:44:03.629Z,99837.88
2023-01-25T14:46:30.389Z,99831.91
2023-01-25T14:49:18.102Z,99831.16
2023-01-25T14:51:51.131Z,99819.03
2023-01-25T14:54:21.275Z,99824.16
2023-01-25T14:56:50.858Z,99817.59
2023-01-25T14:59:25.039Z,99819.53
2023-01-25T15:01:54.499Z,99814.91
2023-01-25T15:04:21.509Z,99811.25
2023-01-25T15:06:53.604Z,99814.81
2023-01-25T15:09:32.827Z,99803.84
2023-01-25T15:12:06.026Z,99807.28
2023-01-25T15:14:33.206Z,99806.22
2023-01-25T15:17:01.195Z,99809.25
2023-01-25T15:19:31.603Z,99800.03
2023-01-25T15:22:00.485Z,99802.38
2023-01-25T15:24:28.046Z,99802.66
2023-01-25T15:26:55.407Z,99789.72
2023-01-25T15:29:28.734Z,99789.88
2023-01-25T15:31:56.255Z,99791.75
2023-01-25T15:34:34.985Z,99790.53
2023-01-25T15:37:01.705Z,99780.03
2023-01-25T15:39:28.831Z,99775.91
2023-01-25T15:41:55.693Z,99775.91
2023-01-25T15:44:22.441Z,99772.19
2023-01-25T15:46:51.393Z,99767.66
2023-01-25T15:49:25.272Z,99761.72
2023-01-25T15:51:52.316Z,99762.94
2023-01-25T15:54:19.154Z,99768.09
2023-01-25T15:56:49.029Z,99759.69
2023-01-25T15:59:17.976Z,99756.41
2023-01-25T16:01:45.346Z,99747.53
2023-01-25T16:04:15.128Z,99747.78
2023-01-25T16:06:51.353Z,99746.94
2023-01-25T16:09:27.304Z,99737.22
2023-01-25T16:11:58.572Z,99736.19
2023-01-25T16:14:32.140Z,99737.06
2023-01-25T16:17:05.644Z,99729.91
2023-01-25T16:19:33.520Z,99724.34
2023-01-25T16:22:00.270Z,99728.81
2023-01-25T16:24:27.328Z,99732.31
2023-01-25T16:26:56.239Z,99730.50
2023-01-25T16:29:23.381Z,99741.59
2023-01-25T16:31:51.662Z,99738.69
2023-01-25T16:34:20.123Z,99729.19
2023-01-25T16:36:50.424Z,99731.06
2023-01-25T16:39:20.623Z,99732.47
2023-01-25T16:41:48.563Z,99734.09
2023-01-25T16:44:16.848Z,99733.06
2023-01-25T16:46:43.944Z,99725.47
2023-01-25T16:49:22.815Z,99723.09
2023-01-25T16:51:50.622Z,99728.19
2023-01-25T16:54:19.872Z,99718.34
2023-01-25T16:56:47.875Z,99720.41
2023-01-25T16:59:14.698Z,99715.22
2023-01-25T17:01:41.802Z,99714.56
2023-01-25T17:04:09.975Z,99717.59
2023-01-25T17:06:40.235Z,99708.53
2023-01-25T17:09:21.712Z,99704.31
2023-01-25T17:11:49.673Z,99706.53
2023-01-25T17:14:20.913Z,99708.78
2023-01-25T17:16:51.399Z,99706.69
2023-01-25T17:19:19.037Z,99710.19
2023-01-25T17:21:46.497Z,99700.75
2023-01-25T17:24:35.881Z,99702.38
2023-01-25T17:27:03.008Z,99697.09
2023-01-25T17:29:30.044Z,99697.91
2023-01-25T17:31:57.149Z,99692.16
2023-01-25T17:34:24.112Z,99688.00
2023-01-25T17:36:52.474Z,99686.53
2023-01-25T17:39:20.550Z,99688.16
2023-01-25T17:41:49.015Z,99687.13
2023-01-25T17:44:23.206Z,99687.56
2023-01-25T17:46:51.234Z,99684.31
2023-01-25T17:49:18.756Z,99682.13
2023-01-25T17:51:45.911Z,99679.69
2023-01-25T17:54:13.135Z,99677.00
2023-01-25T17:56:40.107Z,99672.09
2023-01-25T17:59:09.036Z,99668.38
2023-01-25T18:01:37.447Z,99664.22
2023-01-25T18:04:07.601Z,99661.53
2023-01-25T18:06:34.736Z,99660.34
2023-01-25T18:09:03.719Z,99669.56
2023-01-25T18:11:34.167Z,99661.91
2023-01-25T18:14:10.430Z,99657.22
2023-01-25T18:16:39.851Z,99646.53
2023-01-25T18:19:09.968Z,99652.09
2023-01-25T18:21:40.885Z,99646.09
2023-01-25T18:24:35.487Z,99635.09
2023-01-25T18:27:07.118Z,99638.66
2023-01-25T18:29:50.219Z,99639.91
2023-01-25T18:32:17.016Z,99640.94
2023-01-25T18:34:44.177Z,99635.78
2023-01-25T18:37:25.650Z,99631.88
2023-01-25T18:39:54.220Z,99630.47
2023-01-25T18:42:23.937Z,99631.97
2023-01-25T18:44:50.874Z,99621.84
2023-01-25T18:47:19.366Z,99628.44
2023-01-25T18:49:49.069Z,99637.31
2023-01-25T18:52:18.608Z,99625.31
2023-01-25T18:54:46.000Z,99621.63
2023-01-25T18:57:13.762Z,99620.22
2023-01-25T18:59:40.650Z,99618.34
2023-01-25T19:02:10.308Z,99620.66
2023-01-25T19:04:37.080Z,99616.94
2023-01-25T19:07:04.686Z,99612.78
2023-01-25T19:09:31.729Z,99617.91
2023-01-25T19:11:58.680Z,99607.44
2023-01-25T19:14:25.586Z,99605.19
2023-01-25T19:16:52.532Z,99603.84
2023-01-25T19:19:20.840Z,99603.25
2023-01-25T19:21:47.686Z,99596.03
2023-01-25T19:24:19.423Z,99597.53
2023-01-25T19:26:47.351Z,99594.84
2023-01-25T19:29:15.400Z,99593.16
2023-01-25T19:31:42.361Z,99592.28
2023-01-25T19:34:09.273Z,99587.66
2023-01-25T19:36:38.562Z,99594.19
2023-01-25T19:39:10.071Z,99591.38
2023-01-25T19:41:38.910Z,99596.50
2023-01-25T19:44:07.203Z,99594.41
2023-01-25T19:46:36.509Z,99589.75
2023-01-25T19:49:05.835Z,99591.81
2023-01-25T19:51:34.890Z,99589.91
2023-01-25T19:54:04.265Z,99582.31
2023-01-25T19:56:38.971Z,99574.72
2023-01-25T19:59:11.192Z,99572.06
2023-01-25T20:01:44.095Z,99577.84
2023-01-25T20:04:12.759Z,99561.41
2023-01-25T20:06:40.458Z,99567.59
2023-01-25T20:09:08.403Z,99558.38
2023-01-25T20:11:35.908Z,99556.94
2023-01-25T20:14:05.257Z,99561.50
2023-01-25T20:16:33.902Z,99567.88
2023-01-25T20:19:02.819Z,99561.06
2023-01-25T20:21:33.648Z,99552.59
2023-01-25T20:24:04.709Z,99560.47
2023-01-25T20:26:34.720Z,99555.31
2023-01-25T20:29:01.632Z,99563.88
2023-01-25T20:31:34.548Z,99547.97
2023-01-25T20:34:05.679Z,99553.78
2023-01-25T20:36:34.974Z,99556.66
2023-01-25T20:39:03.416Z,99541.19
2023-01-25T20:41:34.635Z,99539.56
2023-01-25T20:44:07.220Z,99534.06
2023-01-25T20:46:37.572Z,99527.91
2023-01-25T20:49:06.971Z,99523.75
2023-01-25T20:51:35.198Z,99512.00
2023-01-25T20:54:02.690Z,99510.38
2023-01-25T20:56:29.619Z,99509.53
2023-01-25T20:58:56.675Z,99511.56
2023-01-25T21:01:28.561Z,99513.19
2023-01-25T21:03:59.293Z,99503.97
2023-01-25T21:06:28.674Z,99505.22
2023-01-25T21:08:55.684Z,99504.63
2023-01-25T21:11:26.061Z,99501.63
2023-01-25T21:13:56.369Z,99497.31
2023-01-25T21:16:23.788Z,99487.41
2023-01-25T21:18:59.270Z,99488.38
2023-01-25T21:21:28.823Z,99487.47
2023-01-25T21:23:58.997Z,99488.97
2023-01-25T21:26:28.697Z,99491.06
2023-01-25T21:28:56.110Z,99484.06
2023-01-25T21:31:25.693Z,99480.81
2023-01-25T21:33:53.873Z,99474.63
2023-01-25T21:36:22.524Z,99471.59
2023-01-25T21:38:50.760Z,99466.84
2023-01-25T21:41:20.078Z,99468.91
2023-01-25T21:44:06.937Z,99467.88
2023-01-25T21:46:37.814Z,99477.28
2023-01-25T21:49:25.777Z,99479.06
2023-01-25T21:51:57.771Z,99468.91
2023-01-25T21:54:26.497Z,99469.69
2023-01-25T21:56:56.110Z,99467.56
2023-01-25T21:59:23.657Z,99458.22
2023-01-25T22:01:51.502Z,99457.19
2023-01-25T22:04:19.620Z,99456.72
2023-01-25T22:06:48.664Z,99447.13
2023-01-25T22:09:15.829Z,99446.78
2023-01-25T22:11:45.712Z,99444.72
2023-01-25T22:14:13.990Z,99443.88
2023-01-25T22:16:41.379Z,99445.88
2023-01-25T22:19:08.158Z,99447.59
2023-01-25T22:21:34.960Z,99445.38
2023-01-25T22:24:03.923Z,99447.97
2023-01-25T22:26:42.689Z,99449.97
2023-01-25T22:29:09.582Z,99455.09
2023-01-25T22:31:36.347Z,99450.78
2023-01-25T22:34:03.566Z,99453.31
2023-01-25T22:36:31.170Z,99454.13
2023-01-25T22:39:00.468Z,99451.84
2023-01-25T22:41:30.804Z,99463.13
2023-01-25T22:43:58.160Z,99455.09
2023-01-25T22:46:28.016Z,99452.03
2023-01-25T22:48:55.372Z,99447.53
2023-01-25T22:51:25.708Z,99450.78
2023-01-25T22:53:53.940Z,99441.47
2023-01-25T22:56:24.800Z,99445.44
2023-01-25T22:58:52.264Z,99442.38
2023-01-25T23:01:22.063Z,99435.50
2023-01-25T23:03:49.535Z,99436.75
2023-01-25T23:06:21.657Z,99435.03
2023-01-25T23:08:48.919Z,99420.31
2023-01-25T23:11:21.487Z,99418.09
2023-01-25T23:14:07.484Z,99421.22
2023-01-25T23:16:35.596Z,99423.16
2023-01-25T23:19:04.295Z,99409.78
2023-01-25T23:21:31.484Z,99406.53
2023-01-25T23:24:03.224Z,99405.25
2023-01-25T23:26:39.482Z,99412.22
2023-01-25T23:29:12.145Z,99404.91
2023-01-25T23:31:39.082Z,99400.81
2023-01-25T23:34:06.955Z,99399.63
2023-01-25T23:36:36.030Z,99388.94
2023-01-25T23:39:03.211Z,99388.34
2023-01-25T23:41:30.971Z,99385.31
2023-01-25T23:43:58.123Z,99386.81
2023-01-25T23:46:25.983Z,99382.03
2023-01-25T23:48:52.848Z,99374.22
2023-01-25T23:51:20.498Z,99369.34
2023-01-25T23:53:47.880Z,99367.13
2023-01-25T23:56:17.439Z,99351.47
2023-01-25T23:58:44.767Z,99350.03
